world map with TMR marked

TMR - Airport

This information may not be accurate or current and is not valid for navigation or flight planning. No warranty of fitness for any purpose is made or implied.

flag of Algeria

Donate via PayPal

Additional information is available on the NEW Great Circle Mapper

Location
City:  Tamanrasset, Tamanrasset, Algeria
Name:Aguemar-Hadj Bey Akhamok
ICAO / IATA:DAAT / TMR

Details
Type:Airport (Aerodrome, Airfield)
Latitude:22°48'40"N (22.811111)
Longitude:5°27'03"E (5.450833)
Elevation:4518 ft (1377 m)
Runways:2
Longest:11811 × 148 ft (3600 × 45 m)

Time
Timezone:UTC+1 (DST+3)
Local Time:

Weather
METAR:DAAT  041400Z 32019KT CAVOK 20/// Q1017
TAF:DAAT  041100Z 0412/0512 29006KT CAVOK BECMG 0413/0415 30016KT PROB40 TEMPO 0415/0418 34016G26KT BECMG 0421/0424 04006KT

Related Locations
Nearby:
Farthest:EUA: 12329 mi / 19841 km
Eua [Kaufana], TO

Find:

   beyond  
but within

Other Information
Maps:
Sources:

  


 


Great Circle Mapper   Great Circle Mapper
Great Circle Mapper FAQ   Great Circle Mapper FAQ
  Karl's Home Page
KLSē   KLSē Home
   GC on Facebook
Airlines of the World   Airlines of the World
Donate via PayPal


Copyright © 2004-2020, Karl L. Swartz. All rights reserved.
All trademarks mentioned herein belong to their respective owners.

Please see credits for attribution and copyright information.

Karl Swartz <karl@kls2.com>
  Powered by FreeBSD
Valid HTML 4.01!
Labeled with ICRA
hCard Microformat
Geo Microformat